Time;durP1;ratioP1;P1;durP2;ratioP2;P2;SDS_P1;SDS_P2;PMS_P1;PMS_P2;Temp;Humidity;BMP_temperature;BMP_pressure;BME280_temperature;BME280_humidity;BME280_pressure;Samples;Min_cycle;Max_cycle;Signal;HPM_P1;HPM_P2
2023/05/30 00:00:52;;;;;;;8.90;4.20;;;;;;;21.51;42.16;100235.91;4912694;28;20062;-86
2023/05/30 00:03:19;;;;;;;7.07;4.00;;;;;;;21.45;42.19;100229.41;4947092;28;20043;-88
2023/05/30 00:05:46;;;;;;;7.47;4.40;;;;;;;21.43;42.27;100236.88;4932446;28;20402;-87
2023/05/30 00:08:13;;;;;;;8.38;4.43;;;;;;;21.40;42.37;100244.56;4939289;28;20062;-87
2023/05/30 00:10:40;;;;;;;7.40;4.35;;;;;;;21.36;42.50;100241.38;4911255;28;20122;-88
2023/05/30 00:13:07;;;;;;;7.38;4.00;;;;;;;21.33;42.77;100239.06;4906976;28;20565;-88
2023/05/30 00:15:34;;;;;;;10.32;4.47;;;;;;;21.29;43.03;100243.19;4937616;28;20126;-87
2023/05/30 00:18:01;;;;;;;7.10;4.15;;;;;;;21.30;43.16;100254.84;4923577;28;20051;-88
2023/05/30 00:20:30;;;;;;;8.52;4.30;;;;;;;21.32;43.12;100250.91;4949110;28;20049;-86
2023/05/30 00:23:01;;;;;;;8.98;4.13;;;;;;;21.23;42.87;100247.50;4911373;28;20046;-89
2023/05/30 00:25:28;;;;;;;10.13;4.47;;;;;;;21.17;43.50;100245.59;4937824;28;20046;-86
2023/05/30 00:27:55;;;;;;;6.47;4.28;;;;;;;21.16;43.25;100261.97;4946522;28;20425;-88
2023/05/30 00:30:22;;;;;;;11.10;4.25;;;;;;;21.06;43.55;100254.19;4910730;28;20057;-87
2023/05/30 00:32:48;;;;;;;6.13;4.20;;;;;;;21.06;43.55;100248.78;4914268;28;20055;-87
2023/05/30 00:35:15;;;;;;;7.78;3.97;;;;;;;20.98;43.87;100255.16;4945494;28;20069;-88
2023/05/30 00:37:46;;;;;;;7.80;3.83;;;;;;;20.98;43.90;100260.56;4961871;28;20050;-87
2023/05/30 00:40:13;;;;;;;10.07;4.78;;;;;;;20.93;44.12;100252.22;4961595;28;20421;-88
2023/05/30 00:42:40;;;;;;;9.13;4.40;;;;;;;20.98;43.94;100257.03;4942825;28;20145;-87
2023/05/30 00:45:08;;;;;;;8.68;4.43;;;;;;;20.97;43.85;100250.81;4926288;28;20085;-89
2023/05/30 00:47:35;;;;;;;8.20;4.13;;;;;;;20.92;43.74;100253.25;4957976;28;20054;-88
2023/05/30 00:50:03;;;;;;;7.15;4.60;;;;;;;20.83;44.10;100253.56;4973860;28;20058;-87
2023/05/30 00:52:30;;;;;;;10.88;4.70;;;;;;;20.76;44.13;100240.00;4929590;28;20043;-87
2023/05/30 00:55:02;;;;;;;6.97;4.13;;;;;;;20.75;44.57;100251.84;4911009;28;20054;-87
2023/05/30 00:57:30;;;;;;;9.35;4.80;;;;;;;20.66;44.72;100261.06;4952421;28;20517;-88
2023/05/30 00:59:57;;;;;;;8.38;4.40;;;;;;;20.58;44.80;100245.81;4957079;28;20043;-87
2023/05/30 01:02:26;;;;;;;7.28;3.60;;;;;;;20.66;44.35;100237.63;4943471;28;20047;-87
2023/05/30 01:04:53;;;;;;;8.50;3.85;;;;;;;20.55;44.61;100236.25;4930035;28;20130;-87
2023/05/30 01:07:21;;;;;;;7.50;3.97;;;;;;;20.58;44.67;100237.72;4956129;28;20046;-87
2023/05/30 01:09:47;;;;;;;8.98;4.03;;;;;;;20.59;44.61;100237.56;4965117;28;20470;-88
2023/05/30 01:12:25;;;;;;;7.95;3.95;;;;;;;20.50;45.29;100241.34;4944217;28;20054;-88
2023/05/30 01:14:59;;;;;;;5.85;3.30;;;;;;;20.46;44.89;100240.09;4970467;28;20047;-87
2023/05/30 01:17:50;;;;;;;7.05;3.70;;;;;;;20.40;45.50;100246.22;4947101;28;20038;-87
2023/05/30 01:20:20;;;;;;;10.48;4.10;;;;;;;20.46;44.80;100237.38;4968085;28;20058;-88
2023/05/30 01:23:20;;;;;;;10.40;4.65;;;;;;;20.35;45.09;100237.84;4967263;28;20066;-88
2023/05/30 01:25:59;;;;;;;9.70;4.55;;;;;;;20.33;45.12;100226.44;4980939;28;20413;-87
2023/05/30 01:28:30;;;;;;;8.48;4.40;;;;;;;20.33;44.95;100232.69;4959902;28;20039;-87
2023/05/30 01:30:58;;;;;;;7.15;4.32;;;;;;;20.34;44.87;100236.19;4954631;28;20528;-88
2023/05/30 01:33:27;;;;;;;7.38;3.90;;;;;;;20.23;45.24;100225.91;4952030;28;20056;-87
2023/05/30 01:35:54;;;;;;;6.40;3.60;;;;;;;20.22;45.18;100219.66;4984074;28;20130;-87
2023/05/30 01:38:21;;;;;;;7.55;3.80;;;;;;;20.24;44.99;100223.00;4959069;28;20050;-88
2023/05/30 01:40:50;;;;;;;6.95;3.60;;;;;;;20.31;44.82;100218.53;4972609;28;20069;-88
2023/05/30 01:43:39;;;;;;;8.70;3.85;;;;;;;20.21;45.26;100220.69;4946664;28;20055;-87
2023/05/30 01:46:14;;;;;;;8.82;3.80;;;;;;;20.10;45.63;100213.94;4941374;28;20103;-88
2023/05/30 01:48:54;;;;;;;6.45;3.75;;;;;;;20.11;45.26;100225.56;4954346;28;20053;-88
2023/05/30 01:51:36;;;;;;;7.32;3.88;;;;;;;19.99;45.44;100219.78;4933471;28;20050;-87
2023/05/30 01:54:04;;;;;;;7.90;3.95;;;;;;;20.02;45.33;100208.63;4939074;28;20050;-89
2023/05/30 01:56:32;;;;;;;12.60;4.10;;;;;;;19.98;45.38;100211.91;4950821;28;20054;-87
2023/05/30 01:59:00;;;;;;;6.70;3.28;;;;;;;19.80;45.64;100228.47;4979331;28;20120;-87
2023/05/30 02:01:28;;;;;;;7.05;4.20;;;;;;;19.94;45.29;100230.31;4950780;28;20104;-88
2023/05/30 02:03:55;;;;;;;7.95;4.15;;;;;;;19.90;45.24;100223.63;4978515;28;20098;-86
2023/05/30 02:06:23;;;;;;;6.35;3.13;;;;;;;19.87;45.31;100224.84;4949588;28;20059;-88
2023/05/30 02:08:50;;;;;;;7.95;3.58;;;;;;;19.88;45.09;100231.06;4946388;28;20288;-87
2023/05/30 02:11:17;;;;;;;8.57;3.88;;;;;;;19.90;45.13;100231.72;4945710;28;20066;-87
2023/05/30 02:13:45;;;;;;;7.25;3.83;;;;;;;19.94;45.28;100228.44;4953797;28;20197;-87
2023/05/30 02:16:13;;;;;;;8.05;3.72;;;;;;;19.93;45.11;100223.25;4945162;28;20515;-88
2023/05/30 02:18:41;;;;;;;6.30;3.80;;;;;;;19.91;45.13;100226.13;4939427;28;20126;-88
2023/05/30 02:21:08;;;;;;;7.40;3.70;;;;;;;19.90;45.06;100232.53;4922413;28;20411;-88
2023/05/30 02:23:35;;;;;;;6.95;3.60;;;;;;;19.84;45.16;100227.88;4931177;28;20101;-86
2023/05/30 02:26:04;;;;;;;7.75;4.03;;;;;;;19.84;45.28;100240.53;4941215;28;20130;-88
2023/05/30 02:28:31;;;;;;;8.27;4.45;;;;;;;19.79;45.24;100229.47;4946451;28;20098;-89
2023/05/30 02:30:59;;;;;;;10.63;3.53;;;;;;;19.79;45.04;100233.00;4936222;28;20576;-87
2023/05/30 02:33:26;;;;;;;11.48;3.78;;;;;;;19.78;45.04;100228.66;4930193;28;20058;-87
2023/05/30 02:35:53;;;;;;;8.15;3.20;;;;;;;19.73;45.14;100228.38;4943910;28;20051;-87
2023/05/30 02:38:20;;;;;;;5.70;3.25;;;;;;;19.77;44.79;100234.22;4926026;28;20055;-87
2023/05/30 02:40:48;;;;;;;7.57;3.72;;;;;;;19.77;44.98;100228.81;4918978;28;20043;-88
2023/05/30 02:43:15;;;;;;;7.80;3.53;;;;;;;19.61;45.04;100240.59;4953883;28;20057;-86
2023/05/30 02:45:48;;;;;;;7.15;3.63;;;;;;;19.60;45.06;100239.75;4948482;28;20066;-87
2023/05/30 02:48:16;;;;;;;4.32;3.05;;;;;;;19.63;45.11;100241.25;4964361;28;20054;-87
2023/05/30 02:50:43;;;;;;;7.65;3.45;;;;;;;19.57;45.07;100242.81;4949130;28;20097;-88
2023/05/30 02:53:16;;;;;;;4.72;3.13;;;;;;;19.57;45.28;100234.75;4970964;28;20051;-87
2023/05/30 02:55:44;;;;;;;9.00;4.00;;;;;;;19.58;44.95;100233.72;4964317;28;20440;-88
2023/05/30 02:58:29;;;;;;;8.00;3.90;;;;;;;19.59;44.91;100235.41;4953647;28;20053;-87
2023/05/30 03:01:02;;;;;;;10.30;4.15;;;;;;;19.60;44.87;100239.75;4943592;28;20070;-87
2023/05/30 03:03:29;;;;;;;6.80;3.80;;;;;;;19.48;44.92;100236.66;4954533;28;20058;-87
2023/05/30 03:06:06;;;;;;;8.38;3.40;;;;;;;19.58;44.64;100246.34;4945610;28;20126;-87
2023/05/30 03:08:42;;;;;;;8.25;3.95;;;;;;;19.58;44.93;100239.09;4941666;28;20417;-86
2023/05/30 03:11:10;;;;;;;6.88;3.35;;;;;;;19.64;44.71;100254.53;4933898;28;20054;-86
2023/05/30 03:13:39;;;;;;;7.20;3.53;;;;;;;19.65;44.79;100253.50;4929195;28;20042;-88
2023/05/30 03:16:07;;;;;;;8.57;4.38;;;;;;;19.68;44.67;100250.47;4932054;28;20105;-86
2023/05/30 03:18:34;;;;;;;5.90;4.18;;;;;;;19.69;44.62;100256.69;4935804;28;20055;-88
2023/05/30 03:21:01;;;;;;;5.38;3.30;;;;;;;19.70;44.88;100253.81;4945609;28;20110;-86
2023/05/30 03:23:28;;;;;;;7.03;3.60;;;;;;;19.70;44.52;100267.28;4954917;28;20784;-87
2023/05/30 03:25:55;;;;;;;7.05;3.80;;;;;;;19.69;44.48;100271.03;4924046;28;20098;-86
2023/05/30 03:28:22;;;;;;;6.50;3.58;;;;;;;19.72;44.51;100264.44;4927610;28;20046;-88
2023/05/30 03:31:14;;;;;;;5.38;3.50;;;;;;;19.67;44.44;100264.97;4934351;28;20047;-87
2023/05/30 03:33:41;;;;;;;9.75;3.70;;;;;;;19.62;44.48;100264.66;4935901;28;20058;-87
2023/05/30 03:36:10;;;;;;;7.30;3.60;;;;;;;19.65;44.65;100268.84;4944035;28;20047;-87
2023/05/30 03:38:37;;;;;;;5.90;3.60;;;;;;;19.67;44.51;100275.75;4910511;28;20267;-88
2023/05/30 03:41:05;;;;;;;8.15;3.95;;;;;;;19.67;44.51;100277.63;4947117;28;20043;-87
2023/05/30 03:43:32;;;;;;;8.38;4.05;;;;;;;19.67;44.37;100270.38;4925277;28;20043;-87
2023/05/30 03:45:59;;;;;;;6.65;3.40;;;;;;;19.66;44.25;100276.72;4936880;28;20049;-87
2023/05/30 03:48:26;;;;;;;7.60;3.30;;;;;;;19.51;44.22;100276.72;4947387;28;20039;-87
2023/05/30 03:50:53;;;;;;;9.07;3.75;;;;;;;19.54;44.33;100270.13;4931419;28;20417;-86
2023/05/30 03:53:21;;;;;;;12.15;3.97;;;;;;;19.55;44.18;100279.88;4940375;28;20141;-87
2023/05/30 03:55:48;;;;;;;9.18;3.75;;;;;;;19.57;44.29;100282.41;4946838;28;20624;-88
2023/05/30 03:58:17;;;;;;;6.60;3.45;;;;;;;19.59;44.00;100286.59;4934013;28;20061;-88
2023/05/30 04:00:44;;;;;;;7.60;3.30;;;;;;;19.43;44.10;100276.78;4929540;28;20063;-88
2023/05/30 04:03:11;;;;;;;6.40;3.72;;;;;;;19.46;44.31;100281.81;4940937;28;20050;-87
2023/05/30 04:05:40;;;;;;;6.80;3.63;;;;;;;19.46;44.02;100278.28;4943042;28;20051;-88
2023/05/30 04:08:06;;;;;;;8.05;3.22;;;;;;;19.47;43.87;100291.56;4947408;28;20528;-87
2023/05/30 04:10:34;;;;;;;8.82;3.40;;;;;;;19.48;43.95;100289.69;4948098;28;20149;-87
2023/05/30 04:13:01;;;;;;;7.20;2.90;;;;;;;19.43;43.97;100295.63;4948258;28;20556;-86
2023/05/30 04:15:28;;;;;;;6.32;3.70;;;;;;;19.41;43.76;100307.59;4958642;28;20141;-87
2023/05/30 04:17:57;;;;;;;6.55;2.80;;;;;;;19.43;43.83;100294.81;4928926;28;20047;-85
2023/05/30 04:20:24;;;;;;;7.82;3.63;;;;;;;19.47;44.00;100305.03;4940550;28;20045;-87
2023/05/30 04:22:51;;;;;;;5.45;3.03;;;;;;;19.45;43.40;100307.06;4968136;28;20043;-86
2023/05/30 04:25:19;;;;;;;12.40;3.25;;;;;;;19.45;43.74;100292.78;4961197;28;20076;-89
2023/05/30 04:27:47;;;;;;;6.80;3.58;;;;;;;19.46;43.64;100298.00;4924620;28;20153;-87
2023/05/30 04:30:17;;;;;;;7.50;3.40;;;;;;;19.49;43.74;100313.78;4933814;28;20059;-88
2023/05/30 04:32:45;;;;;;;8.77;3.60;;;;;;;19.44;43.40;100310.78;4941325;28;20358;-88
2023/05/30 04:35:15;;;;;;;5.30;3.15;;;;;;;19.39;43.30;100317.75;4925453;28;20039;-87
2023/05/30 04:37:44;;;;;;;8.90;2.80;;;;;;;19.32;43.25;100296.09;4935254;28;20494;-88
2023/05/30 04:40:12;;;;;;;8.18;2.80;;;;;;;19.36;43.55;100304.63;4966066;28;20055;-88
2023/05/30 04:42:41;;;;;;;5.75;3.08;;;;;;;19.41;43.42;100311.16;4958592;28;20051;-87
2023/05/30 04:45:09;;;;;;;8.90;3.90;;;;;;;19.37;43.43;100309.00;4966136;28;20145;-87
2023/05/30 04:47:38;;;;;;;7.85;3.35;;;;;;;19.39;43.07;100315.88;4947868;28;20460;-89
2023/05/30 04:50:06;;;;;;;6.93;3.45;;;;;;;19.41;42.98;100315.69;4947064;28;20058;-88
2023/05/30 04:52:33;;;;;;;7.82;2.72;;;;;;;19.38;42.97;100305.28;4945564;28;20141;-87
2023/05/30 04:55:00;;;;;;;7.25;2.80;;;;;;;19.24;42.78;100318.53;4927397;28;21529;-88
2023/05/30 04:57:28;;;;;;;8.77;3.58;;;;;;;19.29;42.73;100318.00;4941535;28;20506;-87
2023/05/30 04:59:56;;;;;;;8.57;3.95;;;;;;;19.34;43.16;100320.16;4917739;28;20055;-87
2023/05/30 05:02:23;;;;;;;9.35;3.15;;;;;;;19.24;42.61;100328.47;4961070;28;20066;-87
2023/05/30 05:04:51;;;;;;;5.28;2.67;;;;;;;19.21;42.84;100336.88;4930275;28;20293;-88
2023/05/30 05:07:18;;;;;;;6.13;2.80;;;;;;;19.27;43.29;100334.31;4970955;28;20105;-87
2023/05/30 05:10:06;;;;;;;6.13;2.35;;;;;;;19.33;42.71;100327.34;4948296;28;20047;-88
2023/05/30 05:12:33;;;;;;;8.88;3.50;;;;;;;19.35;43.03;100335.28;4949293;28;20047;-87
2023/05/30 05:15:00;;;;;;;8.65;3.45;;;;;;;19.31;42.82;100334.81;4961202;28;20062;-87
2023/05/30 05:17:27;;;;;;;7.70;2.75;;;;;;;19.38;42.94;100340.28;4944595;28;20585;-88
2023/05/30 05:19:54;;;;;;;6.75;2.65;;;;;;;19.32;42.07;100339.16;4954967;28;20046;-89
2023/05/30 05:22:21;;;;;;;6.43;2.58;;;;;;;19.28;42.80;100341.38;4971633;28;20398;-89
2023/05/30 05:24:48;;;;;;;4.88;2.97;;;;;;;19.32;42.78;100344.53;4935871;28;20047;-87
2023/05/30 05:27:15;;;;;;;5.07;2.88;;;;;;;19.28;42.20;100354.84;4944007;28;20051;-88
2023/05/30 05:29:42;;;;;;;5.85;2.80;;;;;;;19.24;42.31;100341.94;4910537;28;20081;-87
2023/05/30 05:32:09;;;;;;;6.90;2.97;;;;;;;19.21;41.89;100358.41;4934926;28;20046;-88
2023/05/30 05:34:36;;;;;;;8.38;2.85;;;;;;;19.18;42.26;100348.84;4947252;28;20108;-88
2023/05/30 05:37:03;;;;;;;7.63;3.38;;;;;;;19.11;41.77;100360.50;4958053;28;20100;-87
2023/05/30 05:39:30;;;;;;;4.35;2.78;;;;;;;19.16;42.20;100348.22;4941827;28;20082;-89
2023/05/30 05:41:57;;;;;;;7.65;2.88;;;;;;;19.31;42.47;100361.75;4911052;28;20048;-86
2023/05/30 05:44:26;;;;;;;6.57;2.70;;;;;;;19.26;42.21;100375.72;4947959;28;20047;-88
2023/05/30 05:46:53;;;;;;;5.88;2.80;;;;;;;19.25;42.04;100360.56;4944062;28;20043;-87
2023/05/30 05:49:20;;;;;;;6.55;2.53;;;;;;;19.35;41.58;100359.50;4944485;28;20078;-87
2023/05/30 05:51:47;;;;;;;6.72;2.53;;;;;;;19.36;41.47;100374.63;4929516;28;20556;-87
2023/05/30 05:54:14;;;;;;;9.98;2.80;;;;;;;19.14;41.37;100369.06;4936735;28;20047;-87
2023/05/30 05:56:41;;;;;;;8.00;3.17;;;;;;;19.13;41.38;100371.94;4931592;28;20494;-88
2023/05/30 05:59:08;;;;;;;7.28;2.42;;;;;;;19.22;41.32;100377.09;4963091;28;20561;-86
2023/05/30 06:01:35;;;;;;;6.40;2.60;;;;;;;19.27;41.20;100371.19;4944123;28;20047;-87
2023/05/30 06:04:09;;;;;;;7.22;3.10;;;;;;;19.12;41.04;100389.13;4918606;28;20061;-88
2023/05/30 06:06:36;;;;;;;11.32;2.60;;;;;;;19.23;41.00;100384.16;4945137;28;20097;-87
2023/05/30 06:09:03;;;;;;;9.25;2.65;;;;;;;19.25;41.31;100382.13;4924529;28;20063;-87
2023/05/30 06:11:30;;;;;;;7.88;2.30;;;;;;;19.31;41.63;100377.88;4920999;28;20051;-86
2023/05/30 06:13:57;;;;;;;7.93;2.95;;;;;;;19.36;41.05;100386.28;4917777;28;20581;-87
2023/05/30 06:16:24;;;;;;;5.55;2.38;;;;;;;19.42;40.86;100374.75;4931460;28;20061;-87
2023/05/30 06:18:50;;;;;;;7.75;2.28;;;;;;;19.38;41.18;100372.59;4949661;28;20046;-87
2023/05/30 06:21:17;;;;;;;5.35;2.55;;;;;;;19.44;40.86;100379.97;4957245;28;20060;-87
2023/05/30 06:23:44;;;;;;;8.75;2.40;;;;;;;19.44;40.66;100371.91;4956527;28;20078;-88
2023/05/30 06:26:11;;;;;;;7.18;2.78;;;;;;;19.55;41.30;100381.41;4966685;28;20564;-87
2023/05/30 06:28:38;;;;;;;6.35;2.17;;;;;;;19.44;40.67;100380.81;4956682;28;20351;-86
2023/05/30 06:31:05;;;;;;;7.65;2.38;;;;;;;19.47;41.40;100403.84;4947556;28;20219;-88
2023/05/30 06:33:32;;;;;;;9.90;2.55;;;;;;;19.56;40.89;100386.59;4958284;28;20043;-87
2023/05/30 06:35:59;;;;;;;7.20;2.35;;;;;;;19.61;40.72;100396.84;4933789;28;20098;-87
2023/05/30 06:38:26;;;;;;;8.20;2.50;;;;;;;19.57;40.79;100387.47;4948114;28;20051;-88
2023/05/30 06:40:54;;;;;;;7.65;2.35;;;;;;;19.36;40.64;100396.19;4953756;28;20047;-87
2023/05/30 06:43:22;;;;;;;7.85;2.38;;;;;;;19.43;40.45;100397.97;4948174;28;20055;-85
2023/05/30 06:45:50;;;;;;;8.10;2.30;;;;;;;19.47;40.45;100398.47;4959097;28;20150;-88
2023/05/30 06:48:16;;;;;;;7.47;2.60;;;;;;;19.49;40.61;100396.44;4936151;28;20042;-87
2023/05/30 06:50:43;;;;;;;9.35;2.88;;;;;;;19.43;40.37;100397.16;4940435;28;20090;-87
2023/05/30 06:53:13;;;;;;;8.80;2.70;;;;;;;19.32;40.45;100406.47;4941176;28;20058;-87
2023/05/30 06:55:40;;;;;;;5.68;3.03;;;;;;;19.41;40.35;100401.88;4924080;28;20063;-87
2023/05/30 06:58:07;;;;;;;16.85;2.55;;;;;;;19.59;40.52;100401.56;4937277;28;20054;-85
2023/05/30 07:00:34;;;;;;;8.48;2.55;;;;;;;19.58;40.88;100400.72;4960271;28;20062;-87
2023/05/30 07:03:02;;;;;;;7.95;3.20;;;;;;;19.58;40.63;100397.19;4958573;28;20502;-86
2023/05/30 07:05:29;;;;;;;9.23;2.42;;;;;;;19.50;40.42;100398.09;4952204;28;20043;-84
2023/05/30 07:07:56;;;;;;;40.45;8.18;;;;;;;19.59;40.56;100391.66;4961869;28;20054;-87
2023/05/30 07:10:25;;;;;;;26.25;4.28;;;;;;;19.75;40.61;100388.00;4971397;28;20042;-86
2023/05/30 07:12:52;;;;;;;12.05;3.00;;;;;;;19.68;40.92;100404.03;4958535;28;20047;-87
2023/05/30 07:15:19;;;;;;;8.77;2.83;;;;;;;19.69;40.34;100394.97;4934859;28;20046;-87
2023/05/30 07:17:46;;;;;;;5.82;2.22;;;;;;;19.72;40.23;100418.00;4940630;28;20054;-86
2023/05/30 07:20:14;;;;;;;6.15;2.42;;;;;;;19.72;40.22;100404.53;4942744;28;20051;-86
2023/05/30 07:22:41;;;;;;;7.53;2.75;;;;;;;19.77;40.39;100398.56;4952049;28;20098;-86
2023/05/30 07:25:08;;;;;;;7.90;2.17;;;;;;;19.80;40.13;100392.84;4962353;28;20502;-86
2023/05/30 07:27:35;;;;;;;8.13;2.45;;;;;;;19.81;39.85;100394.50;4969666;28;20458;-88
2023/05/30 07:30:02;;;;;;;7.28;2.67;;;;;;;19.83;39.77;100400.56;4950311;28;20053;-88
2023/05/30 07:32:30;;;;;;;8.75;2.60;;;;;;;19.87;40.08;100404.56;4949685;28;20453;-86
2023/05/30 07:34:57;;;;;;;9.23;3.30;;;;;;;19.90;40.11;100405.03;4973898;28;20070;-86
2023/05/30 07:37:23;;;;;;;13.40;2.63;;;;;;;19.82;40.11;100404.25;4960540;28;20070;-87
2023/05/30 07:39:50;;;;;;;14.10;3.78;;;;;;;19.89;39.95;100427.59;4947537;28;20445;-88
2023/05/30 07:42:17;;;;;;;10.45;3.20;;;;;;;19.82;39.96;100401.56;4932813;28;20078;-86
2023/05/30 07:44:48;;;;;;;8.98;2.72;;;;;;;19.88;39.96;100403.56;4963552;28;20050;-87
2023/05/30 07:47:15;;;;;;;11.65;2.80;;;;;;;19.90;40.39;100401.50;4955214;28;20043;-86
2023/05/30 07:49:42;;;;;;;12.88;3.63;;;;;;;19.87;39.82;100407.25;4944508;28;20043;-88
2023/05/30 07:52:10;;;;;;;19.02;3.88;;;;;;;19.91;40.15;100395.09;4948615;28;20113;-86
2023/05/30 07:54:37;;;;;;;13.63;3.00;;;;;;;19.93;40.39;100390.38;4949965;28;20058;-86
2023/05/30 07:57:06;;;;;;;8.20;2.50;;;;;;;19.99;39.88;100403.09;4956734;28;20157;-87
2023/05/30 07:59:33;;;;;;;8.38;2.70;;;;;;;20.03;39.53;100398.19;4947036;28;20050;-88
2023/05/30 08:02:00;;;;;;;6.72;2.60;;;;;;;20.02;39.94;100399.19;4947994;28;20078;-89
2023/05/30 08:04:28;;;;;;;5.70;2.00;;;;;;;19.98;39.80;100396.03;4948790;28;20364;-88
2023/05/30 08:06:56;;;;;;;7.43;3.25;;;;;;;19.97;39.50;100382.72;4963720;28;20070;-87
2023/05/30 08:09:27;;;;;;;20.15;4.03;;;;;;;19.90;39.77;100391.56;4958337;28;20046;-87
2023/05/30 08:11:58;;;;;;;25.38;5.07;;;;;;;19.99;39.61;100389.63;4941145;28;20043;-87
2023/05/30 08:14:24;;;;;;;5.68;2.92;;;;;;;19.97;40.21;100390.81;4935849;28;20065;-87
2023/05/30 08:16:51;;;;;;;4.30;2.58;;;;;;;20.06;39.51;100387.88;4941579;28;20201;-87
2023/05/30 08:19:21;;;;;;;8.27;2.30;;;;;;;20.03;39.58;100387.41;4936070;28;20061;-87
2023/05/30 08:21:48;;;;;;;7.80;2.10;;;;;;;20.10;40.67;100385.66;4937651;28;20129;-88
2023/05/30 08:24:15;;;;;;;8.40;2.97;;;;;;;20.12;39.12;100381.75;4958853;28;20042;-87
2023/05/30 08:26:42;;;;;;;7.05;2.75;;;;;;;20.05;40.33;100386.22;4934191;28;20070;-88
2023/05/30 08:29:09;;;;;;;6.38;2.63;;;;;;;20.16;40.09;100390.31;4943809;28;20560;-86
2023/05/30 08:31:35;;;;;;;12.55;2.92;;;;;;;20.12;40.24;100391.69;4944264;28;20046;-87
2023/05/30 08:34:03;;;;;;;6.68;2.53;;;;;;;20.13;40.04;100390.69;4933731;28;20054;-86
2023/05/30 08:36:32;;;;;;;9.35;2.55;;;;;;;20.21;39.67;100387.06;4941889;28;20051;-86
2023/05/30 08:39:01;;;;;;;6.18;2.90;;;;;;;20.07;39.64;100380.59;4947090;28;20043;-87
2023/05/30 08:41:41;;;;;;;7.45;2.70;;;;;;;20.13;39.81;100391.50;4956778;28;20058;-87
2023/05/30 08:44:07;;;;;;;6.00;2.65;;;;;;;20.21;39.68;100378.97;4941185;28;20054;-86
2023/05/30 08:46:43;;;;;;;6.18;2.47;;;;;;;20.22;39.61;100383.31;4946271;28;20054;-88
2023/05/30 08:49:12;;;;;;;7.80;2.30;;;;;;;20.28;40.07;100378.03;4941779;28;20137;-86
2023/05/30 08:51:43;;;;;;;5.97;2.90;;;;;;;20.33;40.24;100381.00;4960642;28;20073;-87
2023/05/30 08:54:16;;;;;;;8.48;2.42;;;;;;;20.39;40.59;100385.66;4947104;28;20473;-87
2023/05/30 08:57:20;;;;;;;6.07;2.47;;;;;;;20.28;39.74;100396.91;4941583;28;20050;-88
2023/05/30 08:59:49;;;;;;;9.10;2.58;;;;;;;20.38;40.30;100384.00;4959412;28;20097;-87
2023/05/30 09:02:19;;;;;;;8.10;2.80;;;;;;;20.43;39.50;100377.19;4915011;28;20473;-88
2023/05/30 09:04:47;;;;;;;6.38;2.33;;;;;;;20.45;39.92;100388.63;4948213;28;20053;-88
2023/05/30 09:07:14;;;;;;;9.43;3.03;;;;;;;20.42;40.15;100389.00;4941912;28;20581;-88
2023/05/30 09:09:41;;;;;;;7.68;2.95;;;;;;;20.49;40.22;100388.06;4945699;28;20051;-87
2023/05/30 09:12:11;;;;;;;8.20;2.72;;;;;;;20.45;40.14;100391.31;4938403;28;20062;-87
2023/05/30 09:14:38;;;;;;;9.63;3.22;;;;;;;20.52;40.36;100379.59;4932295;28;20050;-87
2023/05/30 09:17:05;;;;;;;10.82;3.10;;;;;;;20.50;40.37;100388.91;4943073;28;20475;-88
2023/05/30 09:19:34;;;;;;;7.95;2.40;;;;;;;20.51;40.09;100369.00;4939735;28;20730;-87
2023/05/30 09:22:01;;;;;;;6.88;2.72;;;;;;;20.58;40.53;100383.44;4934619;28;20047;-88
2023/05/30 09:25:03;;;;;;;9.95;3.20;;;;;;;20.52;39.66;100376.91;4949780;28;20093;-88
2023/05/30 09:27:35;;;;;;;10.00;2.70;;;;;;;20.55;39.70;100387.34;4946243;28;20067;-87
2023/05/30 09:30:07;;;;;;;5.22;2.60;;;;;;;20.51;40.09;100377.94;4918193;28;20499;-88
2023/05/30 09:32:36;;;;;;;5.43;2.80;;;;;;;20.54;39.33;100393.78;4945800;28;20047;-87
2023/05/30 09:35:09;;;;;;;5.00;2.53;;;;;;;20.62;39.82;100375.81;4913408;28;20049;-87
2023/05/30 09:37:43;;;;;;;8.70;3.20;;;;;;;20.52;39.00;100386.84;4938906;28;20063;-87
2023/05/30 09:40:15;;;;;;;7.03;2.78;;;;;;;20.57;39.16;100395.25;4938221;28;20134;-87
2023/05/30 09:42:49;;;;;;;5.80;3.10;;;;;;;20.55;39.62;100395.44;4957178;28;20160;-88
2023/05/30 09:45:21;;;;;;;6.57;2.60;;;;;;;20.63;40.03;100389.09;4943041;28;20057;-88
2023/05/30 09:47:50;;;;;;;8.45;3.40;;;;;;;20.69;39.64;100395.63;4952218;28;20078;-87
2023/05/30 09:50:19;;;;;;;9.68;3.17;;;;;;;20.67;39.41;100392.28;4946409;28;20118;-88
2023/05/30 09:52:56;;;;;;;8.55;2.92;;;;;;;20.73;39.21;100380.72;4932877;28;20505;-87
2023/05/30 09:55:24;;;;;;;8.80;3.20;;;;;;;20.75;39.89;100373.28;4939117;28;20089;-87
2023/05/30 09:57:52;;;;;;;9.30;2.72;;;;;;;20.74;39.88;100374.31;4954228;28;20062;-88
2023/05/30 10:00:25;;;;;;;9.00;3.42;;;;;;;20.74;39.91;100387.81;4945676;28;20133;-90
2023/05/30 10:02:57;;;;;;;11.87;3.20;;;;;;;20.78;40.22;100386.38;4947999;28;20125;-88
2023/05/30 10:05:28;;;;;;;7.25;3.05;;;;;;;20.79;39.42;100377.28;4931212;28;20043;-87
2023/05/30 10:07:56;;;;;;;7.57;2.72;;;;;;;20.79;39.13;100380.81;4930214;28;20062;-88
2023/05/30 10:10:24;;;;;;;8.35;3.35;;;;;;;20.77;39.43;100363.13;4949526;28;20130;-87
2023/05/30 10:12:55;;;;;;;7.20;3.15;;;;;;;20.83;39.44;100373.16;4961680;28;20054;-87
2023/05/30 10:15:23;;;;;;;13.73;3.50;;;;;;;20.88;39.20;100356.41;4937365;28;24779;-87
2023/05/30 10:18:15;;;;;;;10.60;2.92;;;;;;;20.84;40.01;100358.66;4946458;28;20595;-88
2023/05/30 10:20:44;;;;;;;10.82;3.47;;;;;;;20.97;39.63;100366.91;4938988;28;20053;-87
2023/05/30 10:23:12;;;;;;;4.53;2.42;;;;;;;21.02;39.88;100358.22;4947429;28;20035;-87
2023/05/30 10:25:44;;;;;;;7.03;2.90;;;;;;;21.06;39.45;100354.09;4971102;28;20047;-87
2023/05/30 10:28:18;;;;;;;6.85;2.65;;;;;;;21.12;40.15;100358.75;4953188;28;20517;-87
2023/05/30 10:30:47;;;;;;;9.07;3.05;;;;;;;21.16;39.18;100359.19;4951440;28;20093;-88
2023/05/30 10:33:14;;;;;;;7.47;3.05;;;;;;;21.14;38.79;100353.16;4961512;28;20272;-87
2023/05/30 10:35:48;;;;;;;6.15;2.85;;;;;;;21.18;39.38;100352.56;4955966;28;20130;-87
2023/05/30 10:38:15;;;;;;;7.03;3.40;;;;;;;21.16;39.49;100362.72;4962684;28;20075;-88
2023/05/30 10:40:57;;;;;;;5.63;2.80;;;;;;;21.14;39.20;100353.16;4959728;28;20050;-87
2023/05/30 10:43:48;;;;;;;7.50;3.05;;;;;;;21.15;39.01;100355.66;4957902;28;20332;-88
2023/05/30 10:46:25;;;;;;;6.60;3.15;;;;;;;21.05;38.46;100382.16;4962474;28;20128;-87
2023/05/30 10:49:05;;;;;;;9.35;2.80;;;;;;;21.16;38.88;100367.28;4939447;28;20417;-87
2023/05/30 10:52:03;;;;;;;5.25;2.83;;;;;;;21.06;39.20;100356.81;4914496;28;20588;-89
2023/05/30 10:54:31;;;;;;;6.53;3.10;;;;;;;21.19;39.01;100339.91;4946618;28;20106;-88
2023/05/30 10:57:27;;;;;;;7.15;3.25;;;;;;;21.22;38.71;100359.28;4947246;28;20096;-87
2023/05/30 10:59:55;;;;;;;5.07;2.70;;;;;;;21.23;39.00;100335.81;4944450;28;20051;-85
2023/05/30 11:02:37;;;;;;;6.80;3.00;;;;;;;21.20;39.33;100333.50;4946523;28;20417;-87
2023/05/30 11:05:10;;;;;;;7.88;3.10;;;;;;;21.38;38.84;100341.13;4936656;28;20129;-89
2023/05/30 11:07:38;;;;;;;5.75;2.95;;;;;;;21.35;38.75;100333.44;4951545;28;20051;-87
2023/05/30 11:10:07;;;;;;;7.90;3.40;;;;;;;21.39;38.85;100332.84;4943965;28;20236;-86
2023/05/30 11:12:47;;;;;;;6.53;3.00;;;;;;;21.40;38.83;100331.00;4957471;28;20129;-88
2023/05/30 11:15:16;;;;;;;6.30;3.22;;;;;;;21.42;38.68;100321.69;4924591;28;20055;-87
2023/05/30 11:17:43;;;;;;;5.63;2.95;;;;;;;21.44;38.66;100319.59;4930578;28;20058;-88
2023/05/30 11:20:16;;;;;;;5.03;2.50;;;;;;;21.50;39.38;100327.94;4960625;28;20141;-88
2023/05/30 11:23:02;;;;;;;4.93;2.88;;;;;;;21.43;38.11;100320.63;4931037;28;20058;-88
2023/05/30 11:25:31;;;;;;;10.93;3.60;;;;;;;21.50;38.50;100323.41;4958395;28;20433;-88
2023/05/30 11:28:03;;;;;;;6.65;3.03;;;;;;;21.48;38.44;100324.63;4913087;28;20137;-87
2023/05/30 11:30:37;;;;;;;7.70;2.97;;;;;;;21.53;38.93;100308.66;4957921;28;20062;-87
2023/05/30 11:33:07;;;;;;;;;;;;;;;21.38;39.27;100314.13;4941655;28;20515;-87
2023/05/30 11:35:34;;;;;;;7.53;3.08;;;;;;;21.62;39.46;100321.81;4957197;28;20024;-87